Time;durP1;ratioP1;P1;durP2;ratioP2;P2;SDS_P1;SDS_P2;PMS_P1;PMS_P2;Temp;Humidity;BMP_temperature;BMP_pressure;BME280_temperature;BME280_humidity;BME280_pressure;Samples;Min_cycle;Max_cycle;Signal;HPM_P1;HPM_P2
2023/09/29 00:00:16;;;;;;;16.25;7.97;;;;;;;16.28;97.77;101446.16;4968398;28;20392;-73
2023/09/29 00:02:46;;;;;;;18.00;7.47;;;;;;;16.27;97.89;101448.88;4968838;28;20042;-73
2023/09/29 00:05:19;;;;;;;16.00;6.70;;;;;;;16.25;97.67;101446.31;4967117;28;20054;-74
2023/09/29 00:07:46;;;;;;;19.05;8.32;;;;;;;16.25;97.95;101453.41;4959644;28;20149;-73
2023/09/29 00:10:16;;;;;;;16.83;8.57;;;;;;;16.24;97.99;101459.66;4966250;28;20070;-73
2023/09/29 00:12:45;;;;;;;15.35;7.75;;;;;;;16.24;98.17;101449.00;4968119;28;20055;-74
2023/09/29 00:15:13;;;;;;;17.27;9.05;;;;;;;16.23;98.07;101442.84;4968986;28;20042;-74
2023/09/29 00:17:41;;;;;;;17.10;9.20;;;;;;;16.22;98.48;101432.28;4961661;28;20043;-73
2023/09/29 00:20:16;;;;;;;15.25;9.25;;;;;;;16.22;98.60;101432.28;4958654;28;20039;-73
2023/09/29 00:22:44;;;;;;;15.63;9.98;;;;;;;16.25;98.50;101440.97;4967300;28;20058;-77
2023/09/29 00:25:11;;;;;;;16.30;9.73;;;;;;;16.25;98.82;101437.44;4969661;28;20038;-77
2023/09/29 00:27:38;;;;;;;18.13;9.50;;;;;;;16.27;98.94;101433.81;4969048;28;20043;-77
2023/09/29 00:30:09;;;;;;;17.35;9.38;;;;;;;16.29;99.40;101441.72;4967571;28;20595;-77
2023/09/29 00:32:36;;;;;;;17.65;9.10;;;;;;;16.29;99.55;101436.38;4968245;28;20121;-79
2023/09/29 00:35:05;;;;;;;16.73;8.68;;;;;;;16.31;99.32;101437.19;4969250;28;20035;-79
2023/09/29 00:37:32;;;;;;;19.40;9.50;;;;;;;16.32;99.69;101440.69;4983361;28;20070;-78
2023/09/29 00:40:00;;;;;;;17.27;9.63;;;;;;;16.32;99.61;101441.56;4964933;28;20066;-78
2023/09/29 00:42:27;;;;;;;15.98;9.13;;;;;;;16.34;99.54;101441.50;4968213;28;20051;-78
2023/09/29 00:44:55;;;;;;;17.70;9.63;;;;;;;16.35;100.00;101449.41;4967107;28;20423;-78
2023/09/29 00:47:22;;;;;;;16.50;10.23;;;;;;;16.36;100.00;101450.28;4969039;28;20049;-75
2023/09/29 00:49:49;;;;;;;16.95;9.60;;;;;;;16.37;100.00;101438.72;4968462;28;20121;-75
2023/09/29 00:52:17;;;;;;;15.13;9.68;;;;;;;16.38;100.00;101422.66;4967742;28;20515;-75
2023/09/29 00:54:45;;;;;;;18.85;9.70;;;;;;;16.39;100.00;101416.41;4968700;28;20042;-75
2023/09/29 00:57:14;;;;;;;16.10;9.10;;;;;;;16.42;100.00;101420.72;4968304;28;20043;-74
2023/09/29 00:59:41;;;;;;;16.42;8.73;;;;;;;16.44;100.00;101414.38;4968256;28;20054;-75
2023/09/29 01:02:10;;;;;;;18.13;9.45;;;;;;;16.45;100.00;101407.28;4965692;28;20046;-74
2023/09/29 01:04:38;;;;;;;14.98;9.18;;;;;;;16.45;100.00;101402.81;4967473;28;20054;-74
2023/09/29 01:07:08;;;;;;;16.25;8.70;;;;;;;16.49;100.00;101411.50;4967731;28;20046;-74
2023/09/29 01:09:35;;;;;;;17.45;8.45;;;;;;;16.53;100.00;101420.25;4967168;28;20105;-74
2023/09/29 01:12:04;;;;;;;15.77;8.68;;;;;;;16.56;100.00;101409.44;4967257;28;20042;-74
2023/09/29 01:14:32;;;;;;;15.10;8.25;;;;;;;16.58;100.00;101407.56;4964657;28;20045;-74
2023/09/29 01:16:59;;;;;;;12.55;7.47;;;;;;;16.62;100.00;101409.16;4967969;28;20169;-75
2023/09/29 01:19:26;;;;;;;13.27;8.02;;;;;;;16.63;100.00;101410.91;4970042;28;20121;-75
2023/09/29 01:21:54;;;;;;;15.48;8.27;;;;;;;16.66;100.00;101415.22;4973840;28;20050;-76
2023/09/29 01:24:22;;;;;;;12.38;7.63;;;;;;;16.68;100.00;101408.88;4966778;28;20102;-76
2023/09/29 01:26:49;;;;;;;13.98;7.90;;;;;;;16.71;100.00;101410.50;4967551;28;20563;-76
2023/09/29 01:29:16;;;;;;;12.60;7.82;;;;;;;16.73;100.00;101408.66;4968933;28;20052;-76
2023/09/29 01:31:44;;;;;;;13.25;7.90;;;;;;;16.74;100.00;101405.91;4968225;28;20050;-76
2023/09/29 01:34:12;;;;;;;12.73;7.53;;;;;;;16.75;100.00;101407.63;4966787;28;20038;-76
2023/09/29 01:36:40;;;;;;;12.80;6.88;;;;;;;16.77;100.00;101403.09;4966782;28;20061;-76
2023/09/29 01:39:08;;;;;;;14.48;7.50;;;;;;;16.80;100.00;101398.56;4967365;28;20591;-76
2023/09/29 01:41:35;;;;;;;10.48;7.00;;;;;;;16.82;100.00;101402.88;4966871;28;20046;-76
2023/09/29 01:44:03;;;;;;;13.18;6.80;;;;;;;16.84;100.00;101405.50;4964038;28;20589;-76
2023/09/29 01:46:30;;;;;;;11.43;6.65;;;;;;;16.83;100.00;101399.28;4967383;28;20043;-76
2023/09/29 01:48:57;;;;;;;11.38;7.03;;;;;;;16.84;100.00;101393.03;4966731;28;20042;-76
2023/09/29 01:51:29;;;;;;;11.38;7.20;;;;;;;16.85;100.00;101381.44;4983320;28;20117;-76
2023/09/29 01:53:57;;;;;;;15.20;6.72;;;;;;;16.85;100.00;101378.78;4977246;28;20058;-76
2023/09/29 01:56:24;;;;;;;12.32;6.32;;;;;;;16.85;100.00;101368.13;4966716;28;20119;-77
2023/09/29 01:58:52;;;;;;;9.77;6.43;;;;;;;16.85;99.59;101370.78;4965338;28;20042;-77
2023/09/29 02:01:20;;;;;;;10.63;6.53;;;;;;;16.84;99.80;101363.75;4965850;28;20046;-77
2023/09/29 02:03:48;;;;;;;11.88;6.10;;;;;;;16.84;99.66;101361.09;4963976;28;20539;-77
2023/09/29 02:06:16;;;;;;;10.93;6.53;;;;;;;16.85;99.59;101360.16;4961869;28;20043;-78
2023/09/29 02:08:44;;;;;;;9.32;5.50;;;;;;;16.85;99.61;101352.16;4965069;28;20126;-78
2023/09/29 02:11:12;;;;;;;8.05;5.70;;;;;;;16.85;99.42;101348.63;4956439;28;20392;-77
2023/09/29 02:13:39;;;;;;;9.02;5.43;;;;;;;16.87;99.64;101347.63;4965555;28;20051;-77
2023/09/29 02:16:15;;;;;;;10.18;5.00;;;;;;;16.90;99.25;101344.78;4963787;28;20054;-77
2023/09/29 02:18:42;;;;;;;6.13;4.95;;;;;;;16.91;99.23;101335.03;4967109;28;20050;-77
2023/09/29 02:21:21;;;;;;;7.65;5.00;;;;;;;16.91;99.14;101346.53;4981335;28;20499;-77
2023/09/29 02:23:49;;;;;;;8.23;4.78;;;;;;;16.91;98.82;101349.19;4965364;28;20098;-73
2023/09/29 02:26:17;;;;;;;8.10;5.20;;;;;;;16.93;99.10;101343.81;4965789;28;20043;-73
2023/09/29 02:28:44;;;;;;;10.93;4.70;;;;;;;16.95;98.96;101336.59;4967352;28;20310;-73
2023/09/29 02:31:13;;;;;;;7.80;4.75;;;;;;;16.97;98.99;101339.22;4965339;28;20102;-73
2023/09/29 02:33:41;;;;;;;10.40;4.82;;;;;;;16.98;98.58;101332.97;4964663;28;20066;-74
2023/09/29 02:36:08;;;;;;;8.32;4.70;;;;;;;17.00;98.51;101325.72;4965741;28;20117;-73
2023/09/29 02:38:38;;;;;;;8.40;4.88;;;;;;;17.01;98.57;101331.00;4967577;28;20083;-73
2023/09/29 02:41:07;;;;;;;7.78;4.65;;;;;;;17.01;98.22;101325.66;4968129;28;20407;-72
2023/09/29 02:43:34;;;;;;;6.35;4.15;;;;;;;17.01;98.04;101319.47;4966847;28;20058;-72
2023/09/29 02:46:01;;;;;;;8.35;4.43;;;;;;;17.00;98.03;101326.59;4965191;28;20097;-73
2023/09/29 02:48:29;;;;;;;10.35;4.38;;;;;;;16.99;97.84;101332.03;4966520;28;20046;-73
2023/09/29 02:50:56;;;;;;;8.38;4.43;;;;;;;16.97;97.92;101326.75;4966304;28;20043;-74
2023/09/29 02:53:23;;;;;;;6.13;4.20;;;;;;;16.95;97.81;101331.28;4967719;28;20618;-74
2023/09/29 02:55:51;;;;;;;8.07;4.28;;;;;;;16.94;97.58;101326.03;4969206;28;20389;-74
2023/09/29 02:58:19;;;;;;;7.15;3.95;;;;;;;16.96;97.62;101332.16;4969019;28;20125;-74
2023/09/29 03:00:47;;;;;;;5.75;4.07;;;;;;;16.93;97.83;101325.16;4973271;28;20042;-74
2023/09/29 03:03:14;;;;;;;6.40;3.85;;;;;;;16.93;97.86;101322.50;4983302;28;20802;-74
2023/09/29 03:05:43;;;;;;;7.45;3.72;;;;;;;16.92;98.10;101323.44;4967767;28;20046;-77
2023/09/29 03:08:10;;;;;;;11.02;3.80;;;;;;;16.95;97.85;101325.97;4956196;28;20042;-76
2023/09/29 03:10:37;;;;;;;8.55;3.95;;;;;;;16.96;98.15;101321.50;4970022;28;20495;-77
2023/09/29 03:13:04;;;;;;;8.32;4.10;;;;;;;16.99;97.88;101329.34;4970666;28;20051;-77
2023/09/29 03:15:31;;;;;;;9.93;3.97;;;;;;;17.03;98.20;101317.59;4969135;28;20079;-76
2023/09/29 03:18:00;;;;;;;10.07;3.88;;;;;;;17.04;98.33;101311.34;4969370;28;20043;-77
2023/09/29 03:20:28;;;;;;;6.05;3.70;;;;;;;17.05;98.01;101303.25;4981301;28;20046;-77
2023/09/29 03:23:04;;;;;;;9.52;3.83;;;;;;;17.07;97.92;101303.19;4968522;28;20450;-77
2023/09/29 03:25:32;;;;;;;6.55;3.60;;;;;;;17.08;98.22;101302.25;4969976;28;20046;-77
2023/09/29 03:27:59;;;;;;;5.05;3.28;;;;;;;17.11;97.90;101303.91;4969914;28;20035;-76
2023/09/29 03:30:27;;;;;;;8.05;3.88;;;;;;;17.12;97.95;101303.81;4967517;28;20125;-75
2023/09/29 03:32:55;;;;;;;4.82;3.65;;;;;;;17.15;97.98;101305.44;4968952;28;20066;-75
2023/09/29 03:35:23;;;;;;;6.50;3.60;;;;;;;17.18;98.03;101298.19;4969039;28;20049;-76
2023/09/29 03:37:50;;;;;;;6.90;3.67;;;;;;;17.22;97.98;101298.91;4969116;28;20054;-76
2023/09/29 03:40:18;;;;;;;6.50;3.45;;;;;;;17.23;97.86;101297.97;4970563;28;20035;-76
2023/09/29 03:42:46;;;;;;;7.30;3.58;;;;;;;17.26;97.49;101297.78;4970046;28;20793;-76
2023/09/29 03:45:14;;;;;;;7.78;3.28;;;;;;;17.29;98.10;101291.44;4969421;28;20051;-75
2023/09/29 03:47:41;;;;;;;7.43;3.05;;;;;;;17.30;97.74;101291.38;4968232;28;20047;-75
2023/09/29 03:50:11;;;;;;;5.60;3.20;;;;;;;17.34;97.59;101284.06;4970115;28;20031;-75
2023/09/29 03:52:45;;;;;;;6.53;3.28;;;;;;;17.36;97.44;101277.72;4968866;28;20518;-74
2023/09/29 03:55:14;;;;;;;5.82;3.50;;;;;;;17.34;97.50;101271.63;4969091;28;20043;-74
2023/09/29 03:57:42;;;;;;;7.82;3.25;;;;;;;17.36;97.10;101280.38;4969366;28;20125;-74
2023/09/29 04:00:12;;;;;;;7.72;3.83;;;;;;;17.38;97.43;101275.00;4965841;28;20129;-74
2023/09/29 04:02:40;;;;;;;9.05;3.38;;;;;;;17.38;97.49;101265.19;4968222;28;20499;-74
2023/09/29 04:05:09;;;;;;;6.65;3.33;;;;;;;17.40;97.47;101251.75;4968895;28;20043;-74
2023/09/29 04:07:39;;;;;;;5.13;2.97;;;;;;;17.40;97.42;101249.09;4966096;28;20042;-74
2023/09/29 04:10:09;;;;;;;7.50;3.28;;;;;;;17.39;97.32;101250.91;4966876;28;20089;-74
2023/09/29 04:12:38;;;;;;;7.95;3.33;;;;;;;17.39;97.14;101263.38;4969404;28;20054;-74
2023/09/29 04:15:07;;;;;;;8.10;3.55;;;;;;;17.39;97.46;101255.41;4967102;28;20130;-74
2023/09/29 04:17:35;;;;;;;7.60;3.40;;;;;;;17.41;97.73;101249.97;4969041;28;20042;-74
2023/09/29 04:20:05;;;;;;;7.28;3.38;;;;;;;17.44;97.72;101248.00;4970111;28;20142;-74
2023/09/29 04:22:34;;;;;;;4.75;3.08;;;;;;;17.44;97.77;101244.50;4969819;28;20039;-75
2023/09/29 04:25:02;;;;;;;3.88;2.67;;;;;;;17.46;97.73;101245.25;4967280;28;20106;-75
2023/09/29 04:27:29;;;;;;;5.55;2.67;;;;;;;17.44;97.99;101240.00;4968158;28;20039;-74
2023/09/29 04:29:57;;;;;;;8.10;3.20;;;;;;;17.45;97.69;101244.41;4968632;28;20045;-74
2023/09/29 04:32:24;;;;;;;4.90;2.95;;;;;;;17.45;97.75;101244.41;4966031;28;20523;-71
2023/09/29 04:34:51;;;;;;;9.05;3.30;;;;;;;17.46;98.17;101253.25;4966128;28;20117;-73
2023/09/29 04:37:18;;;;;;;6.20;2.65;;;;;;;17.49;97.72;101255.75;4967268;28;20061;-73
2023/09/29 04:39:45;;;;;;;6.57;3.03;;;;;;;17.51;98.56;101246.72;4964129;28;20053;-73
2023/09/29 04:42:13;;;;;;;6.38;2.65;;;;;;;17.54;98.27;101241.25;4962883;28;20133;-73
2023/09/29 04:44:40;;;;;;;4.55;2.80;;;;;;;17.58;98.42;101235.75;4967405;28;20809;-73
2023/09/29 04:47:07;;;;;;;7.43;2.90;;;;;;;17.63;98.24;101231.03;4966769;28;20700;-75
2023/09/29 04:49:34;;;;;;;10.85;3.00;;;;;;;17.64;97.91;101233.63;4967347;28;20047;-74
2023/09/29 04:52:03;;;;;;;6.20;2.88;;;;;;;17.66;98.03;101233.53;4967503;28;20066;-73
2023/09/29 04:54:30;;;;;;;7.15;3.10;;;;;;;17.70;97.75;101232.44;4966191;28;20055;-73
2023/09/29 04:56:57;;;;;;;7.05;3.25;;;;;;;17.74;97.51;101233.13;4967138;28;20035;-73
2023/09/29 04:59:24;;;;;;;4.70;3.00;;;;;;;17.74;97.66;101231.31;4968182;28;20038;-74
2023/09/29 05:01:51;;;;;;;6.00;2.70;;;;;;;17.77;97.20;101230.28;4966374;28;20054;-73
2023/09/29 05:04:18;;;;;;;5.95;2.60;;;;;;;17.77;97.64;101223.16;4965493;28;20496;-73
2023/09/29 05:06:45;;;;;;;4.88;2.50;;;;;;;17.76;97.46;101218.75;4964635;28;20090;-73
2023/09/29 05:09:12;;;;;;;6.50;2.90;;;;;;;17.75;97.24;101226.84;4965999;28;20140;-73
2023/09/29 05:11:40;;;;;;;5.80;2.42;;;;;;;17.73;97.28;101218.06;4965252;28;20595;-74
2023/09/29 05:14:07;;;;;;;3.97;2.67;;;;;;;17.70;97.49;101219.94;4962624;28;20542;-72
2023/09/29 05:16:34;;;;;;;5.97;3.20;;;;;;;17.70;97.39;101225.28;4965671;28;20062;-74
2023/09/29 05:19:01;;;;;;;4.72;2.40;;;;;;;17.69;97.57;101212.91;4966295;28;20043;-73
2023/09/29 05:21:32;;;;;;;4.93;2.70;;;;;;;17.72;97.89;101216.34;4966302;28;20581;-73
2023/09/29 05:23:59;;;;;;;6.13;2.60;;;;;;;17.72;97.86;101200.34;4963688;28;20117;-74
2023/09/29 05:26:27;;;;;;;6.57;2.80;;;;;;;17.74;98.04;101193.13;4966417;28;20055;-74
2023/09/29 05:28:55;;;;;;;4.28;2.30;;;;;;;17.75;98.08;101203.69;4966904;28;20497;-72
2023/09/29 05:31:22;;;;;;;7.38;2.80;;;;;;;17.75;98.10;101195.69;4965285;28;20066;-73
2023/09/29 05:33:53;;;;;;;5.75;2.65;;;;;;;17.75;97.92;101205.53;4961846;28;20054;-73
2023/09/29 05:36:21;;;;;;;16.67;3.30;;;;;;;17.75;98.00;101208.19;4965738;28;20074;-73
2023/09/29 05:38:49;;;;;;;4.80;2.38;;;;;;;17.71;98.09;101202.13;4962836;28;20512;-71
2023/09/29 05:41:17;;;;;;;5.70;2.40;;;;;;;17.70;98.22;101201.28;4963638;28;20047;-73
2023/09/29 05:43:44;;;;;;;5.35;2.67;;;;;;;17.70;98.27;101203.09;4966309;28;20253;-73
2023/09/29 05:46:11;;;;;;;4.20;2.40;;;;;;;17.70;98.86;101203.97;4966242;28;20070;-73
2023/09/29 05:48:39;;;;;;;3.58;2.40;;;;;;;17.70;98.82;101198.63;4964061;28;20046;-74
2023/09/29 05:51:06;;;;;;;5.60;2.80;;;;;;;17.70;98.92;101198.63;4965636;28;20043;-74
2023/09/29 05:53:33;;;;;;;4.55;2.42;;;;;;;17.73;98.71;101194.06;4967036;28;20062;-73
2023/09/29 05:56:12;;;;;;;5.60;2.83;;;;;;;17.76;98.94;101194.75;4965506;28;20051;-74
2023/09/29 05:58:40;;;;;;;4.88;2.30;;;;;;;17.78;99.21;101195.53;4962722;28;20646;-74
2023/09/29 06:01:13;;;;;;;7.40;2.58;;;;;;;17.83;98.75;101205.97;4965072;28;20422;-73
2023/09/29 06:03:41;;;;;;;4.18;2.30;;;;;;;17.87;98.96;101201.31;4964213;28;20043;-73
2023/09/29 06:06:09;;;;;;;6.03;2.75;;;;;;;17.90;98.83;101194.00;4966411;28;20062;-74
2023/09/29 06:08:37;;;;;;;10.63;2.47;;;;;;;17.95;98.94;101193.75;4964682;28;20053;-73
2023/09/29 06:11:20;;;;;;;4.93;2.40;;;;;;;18.00;99.33;101189.91;4961750;28;20046;-73
2023/09/29 06:13:47;;;;;;;7.13;2.58;;;;;;;18.06;98.65;101199.38;4965110;28;20047;-73
2023/09/29 06:16:14;;;;;;;15.93;3.50;;;;;;;18.12;98.73;101196.34;4965227;28;20080;-73
2023/09/29 06:18:41;;;;;;;12.50;2.90;;;;;;;18.16;98.90;101200.56;4967398;28;20038;-74
2023/09/29 06:21:09;;;;;;;7.60;2.53;;;;;;;18.20;98.61;101193.25;4966475;28;20150;-74
2023/09/29 06:23:36;;;;;;;6.20;2.20;;;;;;;18.25;98.92;101192.97;4966893;28;20569;-73
2023/09/29 06:26:03;;;;;;;4.05;2.33;;;;;;;18.30;98.49;101193.59;4965740;28;20043;-75
2023/09/29 06:28:30;;;;;;;5.45;2.60;;;;;;;18.35;98.42;101188.00;4970560;28;20110;-75
2023/09/29 06:30:57;;;;;;;9.38;2.90;;;;;;;18.41;97.87;101179.63;4970791;28;20463;-75
2023/09/29 06:33:25;;;;;;;4.80;2.58;;;;;;;18.52;97.82;101189.69;4971597;28;20142;-76
2023/09/29 06:35:53;;;;;;;6.88;2.50;;;;;;;18.63;97.67;101187.22;4970274;28;20081;-75
2023/09/29 06:38:20;;;;;;;6.45;2.42;;;;;;;18.76;97.45;101190.91;4970924;28;20043;-74
2023/09/29 06:40:47;;;;;;;4.78;2.30;;;;;;;18.87;96.99;101195.59;4971057;28;20174;-75
2023/09/29 06:43:17;;;;;;;4.00;1.90;;;;;;;18.95;96.89;101194.31;4971213;28;20046;-75
2023/09/29 06:45:44;;;;;;;7.07;2.10;;;;;;;19.03;96.06;101192.03;4972213;28;20129;-75
2023/09/29 06:48:28;;;;;;;4.82;2.33;;;;;;;19.13;95.80;101181.66;4972217;28;20047;-75
2023/09/29 06:50:59;;;;;;;5.75;2.10;;;;;;;19.26;95.44;101195.13;4969860;28;20086;-75
2023/09/29 06:53:29;;;;;;;4.13;2.10;;;;;;;19.33;95.27;101199.97;4971376;28;20047;-75
2023/09/29 06:55:58;;;;;;;6.93;1.95;;;;;;;19.36;95.48;101193.59;4970736;28;20213;-75
2023/09/29 06:58:26;;;;;;;4.40;1.92;;;;;;;19.34;94.90;101196.34;4968625;28;20800;-75
2023/09/29 07:00:56;;;;;;;5.68;2.38;;;;;;;19.32;94.95;101206.31;4969618;28;20704;-75
2023/09/29 07:03:30;;;;;;;5.65;2.00;;;;;;;19.29;94.78;101210.94;4969481;28;20051;-75
2023/09/29 07:06:04;;;;;;;4.65;2.30;;;;;;;19.28;94.97;101212.78;4971918;28;20039;-75
2023/09/29 07:08:31;;;;;;;4.43;2.10;;;;;;;19.29;94.94;101208.28;4971618;28;20051;-75
2023/09/29 07:10:59;;;;;;;5.03;2.60;;;;;;;19.29;94.59;101205.59;4969614;28;20041;-74
2023/09/29 07:13:26;;;;;;;4.80;1.88;;;;;;;19.28;94.38;101207.44;4965479;28;20121;-75
2023/09/29 07:15:53;;;;;;;3.58;1.92;;;;;;;19.29;94.60;101201.13;4967868;28;20043;-75
2023/09/29 07:18:21;;;;;;;7.45;2.20;;;;;;;19.34;94.70;101203.53;4949767;28;20051;-75
2023/09/29 07:20:53;;;;;;;7.50;2.40;;;;;;;19.36;94.78;101198.94;4957253;28;20117;-75
2023/09/29 07:23:21;;;;;;;4.47;1.85;;;;;;;19.38;94.46;101205.06;4969588;28;20073;-75
2023/09/29 07:25:53;;;;;;;4.60;2.17;;;;;;;19.43;94.24;101205.63;4969443;28;20039;-75
2023/09/29 07:28:23;;;;;;;5.32;2.00;;;;;;;19.47;93.60;101201.81;4967748;28;20298;-75
2023/09/29 07:30:53;;;;;;;4.60;2.00;;;;;;;19.51;93.63;101211.34;4951492;28;20043;-74
2023/09/29 07:33:20;;;;;;;3.78;2.10;;;;;;;19.53;93.44;101219.28;4950155;28;20047;-75
2023/09/29 07:35:47;;;;;;;20.95;4.55;;;;;;;19.58;93.43;101219.00;4957491;28;20071;-75
2023/09/29 07:38:17;;;;;;;50.00;8.90;;;;;;;19.67;93.71;101221.09;4967659;28;20666;-75
2023/09/29 07:40:46;;;;;;;17.58;4.22;;;;;;;19.76;93.37;101217.84;4969389;28;20141;-76
2023/09/29 07:43:13;;;;;;;7.03;2.30;;;;;;;19.85;93.12;101221.72;4968658;28;20696;-76
2023/09/29 07:45:40;;;;;;;8.10;2.70;;;;;;;19.94;92.84;101221.19;4970363;28;20051;-74
2023/09/29 07:48:07;;;;;;;5.18;2.30;;;;;;;20.03;92.39;101209.03;4969701;28;20145;-76
2023/09/29 07:50:34;;;;;;;6.82;2.30;;;;;;;20.10;92.32;101221.06;4970414;28;20540;-73
2023/09/29 07:53:02;;;;;;;6.55;2.33;;;;;;;20.19;92.13;101219.59;4968005;28;20039;-74
2023/09/29 07:55:29;;;;;;;10.88;2.75;;;;;;;20.27;92.07;101230.66;4970743;28;20140;-74
2023/09/29 07:57:57;;;;;;;8.43;2.70;;;;;;;20.37;91.79;101230.94;4968426;28;20061;-74
2023/09/29 08:00:24;;;;;;;6.15;2.53;;;;;;;20.46;91.45;101219.63;4967359;28;20097;-74
2023/09/29 08:02:52;;;;;;;6.18;2.35;;;;;;;20.52;91.12;101228.19;4969212;28;20133;-74
2023/09/29 08:05:20;;;;;;;10.65;2.75;;;;;;;20.57;90.75;101234.97;4969788;28;20046;-73
2023/09/29 08:07:47;;;;;;;9.15;2.90;;;;;;;20.70;90.15;101235.03;4969583;28;20510;-73
2023/09/29 08:10:14;;;;;;;878.38;108.57;;;;;;;20.92;88.69;101229.09;4966944;28;20149;-73
2023/09/29 08:12:41;;;;;;;91.68;13.77;;;;;;;21.10;88.19;101228.78;4968429;28;20050;-74
2023/09/29 08:15:11;;;;;;;5.53;2.30;;;;;;;21.23;87.72;101232.34;4965295;28;20059;-73
2023/09/29 08:17:38;;;;;;;17.10;2.85;;;;;;;21.33;87.43;101232.56;4977803;28;20058;-72
2023/09/29 08:20:06;;;;;;;11.35;2.45;;;;;;;21.47;86.56;101238.78;4968270;28;20046;-73
2023/09/29 08:22:33;;;;;;;11.05;2.55;;;;;;;21.60;85.79;101242.34;4968989;28;20050;-74
2023/09/29 08:25:08;;;;;;;9.52;2.90;;;;;;;21.74;84.59;101235.13;4968229;28;20039;-73
2023/09/29 08:27:38;;;;;;;9.50;2.80;;;;;;;21.87;83.51;101246.72;4961309;28;20051;-74
2023/09/29 08:30:07;;;;;;;3.58;1.83;;;;;;;21.92;83.57;101239.19;4968317;28;20043;-74
2023/09/29 08:32:37;;;;;;;7.47;2.20;;;;;;;21.93;82.46;101240.03;4968930;28;20122;-73
2023/09/29 08:35:05;;;;;;;9.43;2.65;;;;;;;21.95;82.45;101238.13;4967020;28;20039;-74
2023/09/29 08:37:33;;;;;;;7.57;1.92;;;;;;;21.99;81.77;101244.94;4966901;28;20452;-74
2023/09/29 08:40:00;;;;;;;4.57;2.20;;;;;;;22.02;81.56;101250.09;4969116;28;20038;-74
2023/09/29 08:42:37;;;;;;;11.10;1.98;;;;;;;22.06;81.40;101246.25;4969215;28;20096;-75
2023/09/29 08:45:12;;;;;;;9.43;2.35;;;;;;;22.11;81.45;101251.28;4968968;28;20047;-73
2023/09/29 08:47:41;;;;;;;9.25;2.17;;;;;;;22.16;80.13;101252.66;4969497;28;20054;-74
2023/09/29 08:50:10;;;;;;;22.70;2.55;;;;;;;22.21;79.81;101251.44;4965189;28;20039;-74
2023/09/29 08:52:44;;;;;;;18.17;3.15;;;;;;;22.24;79.65;101260.13;4968923;28;20135;-74
2023/09/29 08:55:13;;;;;;;8.13;2.10;;;;;;;22.31;78.92;101266.78;4968996;28;20047;-74
2023/09/29 08:57:43;;;;;;;18.00;3.28;;;;;;;22.38;79.31;101269.00;4964215;28;20109;-74
2023/09/29 09:00:13;;;;;;;19.08;3.40;;;;;;;22.46;78.98;101262.16;4968215;28;20045;-74
2023/09/29 09:02:44;;;;;;;13.88;2.63;;;;;;;22.52;79.07;101262.66;4969200;28;20050;-74
2023/09/29 09:05:14;;;;;;;18.75;2.75;;;;;;;22.62;78.41;101271.72;4967809;28;20776;-74
2023/09/29 09:07:43;;;;;;;10.23;2.00;;;;;;;22.65;78.00;101269.66;4969085;28;20043;-74
2023/09/29 09:10:12;;;;;;;7.97;1.77;;;;;;;22.64;76.72;101262.56;4969012;28;20602;-74
2023/09/29 09:12:59;;;;;;;6.68;1.92;;;;;;;22.62;77.74;101280.66;4968605;28;20039;-74
2023/09/29 09:15:27;;;;;;;8.27;2.10;;;;;;;22.60;76.54;101273.66;4968716;28;20043;-74
2023/09/29 09:17:56;;;;;;;13.00;2.55;;;;;;;22.62;75.83;101285.16;4969382;28;20063;-74
2023/09/29 09:20:24;;;;;;;5.35;1.77;;;;;;;22.63;76.51;101277.00;4967505;28;20097;-74
2023/09/29 09:23:00;;;;;;;9.05;1.75;;;;;;;22.63;76.78;101287.75;4968406;28;20043;-74
2023/09/29 09:25:37;;;;;;;7.78;2.05;;;;;;;22.58;76.04;101289.91;4968189;28;20061;-74
2023/09/29 09:28:05;;;;;;;13.43;2.20;;;;;;;22.60;76.42;101289.78;4967724;28;20042;-74
2023/09/29 09:30:35;;;;;;;13.68;2.75;;;;;;;22.62;76.69;101295.91;4968394;28;20053;-74
2023/09/29 09:33:23;;;;;;;7.85;1.95;;;;;;;22.67;75.98;101296.44;4968669;28;20118;-74
2023/09/29 09:36:02;;;;;;;13.73;2.40;;;;;;;22.73;76.05;101304.03;4966503;28;20170;-74
2023/09/29 09:38:33;;;;;;;10.60;2.78;;;;;;;22.87;74.84;101302.16;4968432;28;20078;-75
2023/09/29 09:41:01;;;;;;;10.20;2.03;;;;;;;22.91;73.98;101301.81;4967992;28;20512;-75
2023/09/29 09:43:29;;;;;;;22.02;3.03;;;;;;;22.89;73.93;101302.91;4968340;28;20648;-76
2023/09/29 09:46:11;;;;;;;22.10;2.85;;;;;;;22.93;73.95;101309.75;4967924;28;20488;-75
2023/09/29 09:49:10;;;;;;;12.15;2.80;;;;;;;23.08;73.25;101302.34;4966902;28;20039;-75
2023/09/29 09:51:47;;;;;;;28.05;5.85;;;;;;;23.15;73.88;101314.34;4967326;28;20109;-75
2023/09/29 09:54:21;;;;;;;9.43;2.17;;;;;;;23.15;72.98;101308.94;4967727;28;20178;-74
2023/09/29 09:57:38;;;;;;;19.00;4.00;;;;;;;23.04;74.03;101311.63;4967872;28;20069;-74
2023/09/29 10:00:16;;;;;;;14.85;2.30;;;;;;;22.96;73.42;101306.81;4946875;28;20063;-75
2023/09/29 10:02:48;;;;;;;7.28;1.90;;;;;;;22.95;73.67;101310.47;4948604;28;20044;-74
2023/09/29 10:05:23;;;;;;;9.95;2.00;;;;;;;22.94;73.55;101309.59;4954681;28;20046;-74
2023/09/29 10:07:55;;;;;;;10.95;2.47;;;;;;;23.01;73.44;101318.06;4967415;28;20117;-73
2023/09/29 10:10:32;;;;;;;7.03;2.10;;;;;;;23.00;73.86;101335.19;4966480;28;20054;-74
2023/09/29 10:13:04;;;;;;;7.07;1.77;;;;;;;22.91;74.48;101317.94;4968178;28;20046;-74
2023/09/29 10:15:32;;;;;;;6.78;2.00;;;;;;;22.75;73.55;101333.47;4967631;28;20047;-74
2023/09/29 10:18:12;;;;;;;6.70;1.88;;;;;;;22.55;75.18;101346.53;4967507;28;20038;-74
2023/09/29 10:20:39;;;;;;;8.20;2.10;;;;;;;;;;4966628;28;20043;-73
2023/09/29 10:23:15;;;;;;;6.68;2.33;;;;;;;21.75;80.56;101355.78;4967231;28;20047;-73
2023/09/29 10:25:58;;;;;;;3.63;2.08;;;;;;;21.39;82.89;101350.13;4968686;28;20583;-73
2023/09/29 10:28:39;;;;;;;4.55;2.42;;;;;;;21.14;85.95;101350.94;4967776;28;20578;-73
2023/09/29 10:31:16;;;;;;;6.40;2.55;;;;;;;21.02;86.53;101344.56;4967795;28;20097;-74
2023/09/29 10:33:53;;;;;;;6.15;2.63;;;;;;;21.01;87.30;101347.34;4959757;28;20439;-73
2023/09/29 10:36:30;;;;;;;6.78;2.60;;;;;;;20.98;88.45;101344.84;4967051;28;20047;-73
2023/09/29 10:38:59;;;;;;;7.90;2.40;;;;;;;21.12;88.49;101342.13;4966230;28;20054;-73
2023/09/29 10:41:29;;;;;;;6.50;2.90;;;;;;;21.25;88.93;101339.47;4967236;28;20488;-73
2023/09/29 10:44:04;;;;;;;6.88;2.20;;;;;;;21.32;88.80;101340.75;4966320;28;20492;-73
2023/09/29 10:46:31;;;;;;;5.53;2.60;;;;;;;21.30;88.67;101347.19;4966030;28;20038;-73
2023/09/29 10:48:59;;;;;;;5.68;2.60;;;;;;;21.27;88.28;101350.97;4959669;28;20047;-73
2023/09/29 10:51:31;;;;;;;5.45;2.30;;;;;;;21.28;88.94;101351.81;4945733;28;20496;-73
2023/09/29 10:54:07;;;;;;;5.43;2.30;;;;;;;21.37;89.28;101348.50;4953255;28;20049;-73
2023/09/29 10:56:36;;;;;;;5.57;2.30;;;;;;;21.56;88.96;101358.84;4967670;28;20050;-74
2023/09/29 10:59:08;;;;;;;7.10;2.20;;;;;;;21.68;88.91;101359.84;4965219;28;20047;-73
2023/09/29 11:01:36;;;;;;;6.47;2.30;;;;;;;21.80;89.16;101366.19;4965183;28;20047;-73
2023/09/29 11:04:08;;;;;;;4.22;1.85;;;;;;;21.94;87.42;101366.06;4966434;28;20126;-73
2023/09/29 11:06:47;;;;;;;4.13;1.70;;;;;;;22.15;86.35;101352.09;4964804;28;20135;-73
2023/09/29 11:09:20;;;;;;;5.93;2.20;;;;;;;22.34;85.29;101362.38;4966652;28;20073;-74
2023/09/29 11:11:48;;;;;;;;;;;;;;;22.44;85.77;101371.53;4968029;28;20046;-73
2023/09/29 11:14:16;;;;;;;5.03;1.95;;;;;;;22.52;82.60;101376.34;4968473;28;20025;-73
2023/09/29 11:16:56;;;;;;;7.60;2.05;;;;;;;22.65;83.98;101373.59;4970488;28;20134;-73
2023/09/29 11:19:25;;;;;;;4.70;1.85;;;;;;;22.80;81.81;101387.75;4970251;28;20663;-73
2023/09/29 11:21:52;;;;;;;4.95;2.10;;;;;;;22.88;79.81;101382.66;4970801;28;20055;-74
2023/09/29 11:24:19;;;;;;;6.32;1.90;;;;;;;22.73;80.14;101390.03;4970743;28;20043;-74
2023/09/29 11:26:48;;;;;;;12.80;2.20;;;;;;;22.57;80.42;101389.44;4971451;28;20093;-73
2023/09/29 11:29:23;;;;;;;5.45;2.28;;;;;;;22.53;81.39;101380.75;4965929;28;20042;-74
2023/09/29 11:31:54;;;;;;;7.28;2.10;;;;;;;22.54;80.47;101382.44;4969309;28;20050;-73